Patricia Anne — WDF9428 — position and weather

sailwx.info

Track history (hours):
 
Tides and Currents Weather Stations Pressure Air Temp Water Temp Dewpoint Dewpoint Depression Visibility Wind Speed Wind Dir Waves Ship Positions

Patricia Anne

Owner: Genesis Marine, LLC, Houston, TX. More information available from US FCC via Universal Licensing System and Coast Guard Vessel Documentation Center.

Last reported at 2017-Sep-18 22:10 UTC. Time now 2017-Sep-19 20:48 UTC.
Position N 29°44' W 095°08'.

Length 26 m; draft 3 m.

Type: Towing. MMSI: 367505060.

Date/timePositionNaut miles runAvg speedWind from/ knotsBaromVisibWave heightAir tempDewpointWater temp
2017-Sep-18 22:10N 29°44' W 095°08'0 0.6
2017-Sep-18 21:55N 29°44' W 095°08'3 4.9
2017-Sep-18 21:24N 29°46' W 095°05'2 4.4
2017-Sep-18 20:58N 29°47' W 095°04'0 0.5
2017-Sep-18 20:15N 29°47' W 095°04'0 0.0
2017-Sep-18 19:59N 29°47' W 095°04'0 0.0
2017-Sep-18 19:28N 29°47' W 095°04'1 1.1
2017-Sep-18 18:32N 29°47' W 095°05'1 4.8
2017-Sep-18 18:20N 29°46' W 095°05'1 0.0
2017-Sep-17 07:54N 29°46' W 095°06'1 1.0
2017-Sep-17 06:34N 29°47' W 095°05'1 3.6
2017-Sep-17 06:21N 29°46' W 095°05'1 4.1
2017-Sep-17 06:00N 29°45' W 095°04'3 4.9
2017-Sep-17 05:27N 29°43' W 095°01'2 4.3
2017-Sep-17 05:00N 29°42' W 094°60'2 4.5
2017-Sep-17 04:30N 29°40' W 094°58'3 5.1
2017-Sep-17 04:00N 29°38' W 094°58'3 5.7
2017-Sep-17 03:30N 29°35' W 094°56'3 5.6
2017-Sep-17 03:00N 29°33' W 094°54'3 5.1
2017-Sep-17 02:30N 29°31' W 094°53'  
Track history (hours):
 
Tides and Currents Weather Stations Pressure Air Temp Water Temp Dewpoint Dewpoint Depression Visibility Wind Speed Wind Dir Waves Ship Positions

Patricia Anne

Owner: Genesis Marine, LLC, Houston, TX. More information available from US FCC via Universal Licensing System and Coast Guard Vessel Documentation Center.

Last reported at 2017-Sep-18 22:10 UTC. Time now 2017-Sep-19 20:48 UTC.
Position N 29°44' W 095°08'.

Length 26 m; draft 3 m.

Type: Towing. MMSI: 367505060.

Date/timePositionNaut miles runAvg speedWind from/ knotsBaromVisibWave heightAir tempDewpointWater temp
2017-Sep-18 22:10N 29°44' W 095°08'0 0.6
2017-Sep-18 21:55N 29°44' W 095°08'3 4.9
2017-Sep-18 21:24N 29°46' W 095°05'2 4.4
2017-Sep-18 20:58N 29°47' W 095°04'0 0.5
2017-Sep-18 20:15N 29°47' W 095°04'0 0.0
2017-Sep-18 19:59N 29°47' W 095°04'0 0.0
2017-Sep-18 19:28N 29°47' W 095°04'1 1.1
2017-Sep-18 18:32N 29°47' W 095°05'1 4.8
2017-Sep-18 18:20N 29°46' W 095°05'1 0.0
2017-Sep-17 07:54N 29°46' W 095°06'1 1.0
2017-Sep-17 06:34N 29°47' W 095°05'1 3.6
2017-Sep-17 06:21N 29°46' W 095°05'1 4.1
2017-Sep-17 06:00N 29°45' W 095°04'3 4.9
2017-Sep-17 05:27N 29°43' W 095°01'2 4.3
2017-Sep-17 05:00N 29°42' W 094°60'2 4.5
2017-Sep-17 04:30N 29°40' W 094°58'3 5.1
2017-Sep-17 04:00N 29°38' W 094°58'3 5.7
2017-Sep-17 03:30N 29°35' W 094°56'3 5.6
2017-Sep-17 03:00N 29°33' W 094°54'3 5.1
2017-Sep-17 02:30N 29°31' W 094°53'  

Dump ship's entire track history